MRF weather

Marfa Municipal Airport
Marfa, Texas, United States

Public forecast

Using degrees Fahrenheit for public forecast. Weather courtesy of forecast.io.

METAR (pilot weather report)

Retrieved 2019/08/25 05:56 UTC (52 minutes ago):

KMRF 250556Z AUTO 00000KT 10SM CLR 19/13 A3017 RMK AO2 SLP152 60000 T01940133 10294 20194 51009

TAF (pilot weather forecast)

Closest forecast is Fort Stockton Pecos County Airport, 65.6 nm (121.6 km) ENE. Retrieved 2019/08/25 06:22 UTC (26 minutes ago):

TAF KFST 250520Z 2506/2606 18010KT P6SM FEW060 SCT300 FM251500 28010KT P6SM SCT300 FM260100 17011KT P6SM SCT300